RAM400N GMMX-GMMN
Flight info
| Callsign | RAM400N |
|---|---|
| Flight time | 0h 29m |
| Altitude | 18000 |
| Route | MABAP R722 FOBAC |
| Aircraft | B738/M-SDE2E3FGHIRWXY/LB1 |
Departure
| Time | 2026-05-01 09:03 |
|---|---|
| Airport | Marrakesh Menara Airport (GMMX) |
Arrival
| Time | 2026-05-01 09:32 |
|---|---|
| Airport | Mohammed V International Airport (GMMN) |
| Time | Latitude | Longitude | Altitude | Speed | Heading |
|---|---|---|---|---|---|
| 2026-05-01 08:37 | 31.60352 | -8.02680 | 1554 ft | 0 kts | 187° |
| 2026-05-01 08:46 | 31.60351 | -8.02680 | 1554 ft | 0 kts | 187° |
| 2026-05-01 08:46 | 31.60385 | -8.02677 | 1553 ft | 9 kts | 181° |
| 2026-05-01 08:46 | 31.60428 | -8.02743 | 1551 ft | 8 kts | 82° |
| 2026-05-01 08:46 | 31.60427 | -8.02772 | 1550 ft | 1 kts | 122° |
| 2026-05-01 08:47 | 31.60438 | -8.02793 | 1550 ft | 0 kts | 112° |
| 2026-05-01 08:47 | 31.60438 | -8.02788 | 1550 ft | 5 kts | 95° |
| 2026-05-01 08:47 | 31.60436 | -8.02761 | 1551 ft | 1 kts | 95° |
| 2026-05-01 08:47 | 31.60436 | -8.02750 | 1551 ft | 0 kts | 95° |
| 2026-05-01 08:48 | 31.60435 | -8.02745 | 1551 ft | 0 kts | 95° |
| 2026-05-01 08:48 | 31.60435 | -8.02742 | 1551 ft | 0 kts | 95° |
| 2026-05-01 08:48 | 31.60435 | -8.02740 | 1551 ft | 1 kts | 95° |
| 2026-05-01 08:48 | 31.60434 | -8.02699 | 1552 ft | 6 kts | 104° |
| 2026-05-01 08:49 | 31.60381 | -8.02677 | 1553 ft | 8 kts | 187° |
| 2026-05-01 08:49 | 31.60331 | -8.02683 | 1554 ft | 1 kts | 186° |
| 2026-05-01 08:49 | 31.60339 | -8.02682 | 1554 ft | 1 kts | 186° |
| 2026-05-01 08:49 | 31.60349 | -8.02681 | 1554 ft | 4 kts | 186° |
| 2026-05-01 08:50 | 31.60353 | -8.02681 | 1554 ft | 0 kts | 186° |
| 2026-05-01 08:57 | 31.60363 | -8.02679 | 1554 ft | 5 kts | 186° |
| 2026-05-01 08:57 | 31.60422 | -8.02702 | 1552 ft | 11 kts | 118° |
| 2026-05-01 08:57 | 31.60434 | -8.02751 | 1551 ft | 0 kts | 95° |
| 2026-05-01 08:58 | 31.60433 | -8.02729 | 1551 ft | 7 kts | 95° |
| 2026-05-01 08:58 | 31.60421 | -8.02638 | 1553 ft | 13 kts | 95° |
| 2026-05-01 08:58 | 31.60421 | -8.02543 | 1554 ft | 11 kts | 86° |
| 2026-05-01 08:59 | 31.60417 | -8.02459 | 1554 ft | 9 kts | 97° |
| 2026-05-01 08:59 | 31.60410 | -8.02387 | 1555 ft | 7 kts | 97° |
| 2026-05-01 08:59 | 31.60405 | -8.02338 | 1556 ft | 4 kts | 97° |
| 2026-05-01 08:59 | 31.60401 | -8.02295 | 1557 ft | 8 kts | 97° |
| 2026-05-01 09:00 | 31.60391 | -8.02200 | 1559 ft | 15 kts | 95° |
| 2026-05-01 09:00 | 31.60382 | -8.02072 | 1559 ft | 14 kts | 87° |
| 2026-05-01 09:00 | 31.60444 | -8.02040 | 1558 ft | 2 kts | 9° |
| 2026-05-01 09:01 | 31.60446 | -8.02040 | 1558 ft | 0 kts | 9° |
| 2026-05-01 09:01 | 31.60459 | -8.02037 | 1558 ft | 2 kts | 9° |
| 2026-05-01 09:01 | 31.60470 | -8.02036 | 1558 ft | 0 kts | 9° |
| 2026-05-01 09:02 | 31.60477 | -8.02035 | 1558 ft | 3 kts | 7° |
| 2026-05-01 09:02 | 31.60522 | -8.02030 | 1557 ft | 8 kts | 358° |
| 2026-05-01 09:02 | 31.60556 | -8.02098 | 1555 ft | 13 kts | 279° |
| 2026-05-01 09:02 | 31.60581 | -8.02369 | 1552 ft | 67 kts | 277° |
| 2026-05-01 09:03 | 31.60650 | -8.03207 | 1541 ft | 135 kts | 275° |
| 2026-05-01 09:03 | 31.60757 | -8.04503 | 1611 ft | 178 kts | 277° |
| 2026-05-01 09:03 | 31.60979 | -8.05966 | 2173 ft | 187 kts | 281° |
| 2026-05-01 09:03 | 31.61277 | -8.07406 | 2967 ft | 189 kts | 282° |
| 2026-05-01 09:04 | 31.61511 | -8.08980 | 3468 ft | 201 kts | 278° |
| 2026-05-01 09:04 | 31.61802 | -8.10622 | 3929 ft | 214 kts | 283° |
| 2026-05-01 09:04 | 31.62223 | -8.12368 | 4335 ft | 231 kts | 290° |
| 2026-05-01 09:04 | 31.62825 | -8.14131 | 4966 ft | 237 kts | 293° |
| 2026-05-01 09:05 | 31.63536 | -8.15883 | 5667 ft | 241 kts | 297° |
| 2026-05-01 09:05 | 31.64352 | -8.17629 | 6248 ft | 249 kts | 300° |
| 2026-05-01 09:05 | 31.65272 | -8.19367 | 6930 ft | 254 kts | 304° |
| 2026-05-01 09:05 | 31.66496 | -8.20828 | 7581 ft | 258 kts | 329° |
| 2026-05-01 09:06 | 31.68220 | -8.21416 | 8146 ft | 265 kts | 1° |
| 2026-05-01 09:06 | 31.70001 | -8.20851 | 8708 ft | 273 kts | 27° |
| 2026-05-01 09:06 | 31.71739 | -8.19744 | 8982 ft | 292 kts | 29° |
| 2026-05-01 09:06 | 31.73334 | -8.18648 | 10605 ft | 252 kts | 32° |
| 2026-05-01 09:07 | 31.74825 | -8.17620 | 11149 ft | 261 kts | 24° |
| 2026-05-01 09:07 | 31.76571 | -8.16896 | 11579 ft | 273 kts | 15° |
| 2026-05-01 09:07 | 31.78467 | -8.16344 | 11977 ft | 288 kts | 13° |
| 2026-05-01 09:07 | 31.80446 | -8.15799 | 12581 ft | 294 kts | 12° |
| 2026-05-01 09:08 | 31.82462 | -8.15478 | 13242 ft | 297 kts | 0° |
| 2026-05-01 09:08 | 31.84541 | -8.15620 | 13967 ft | 299 kts | 352° |
| 2026-05-01 09:08 | 31.86609 | -8.15955 | 14652 ft | 302 kts | 351° |
| 2026-05-01 09:08 | 31.88685 | -8.16311 | 15312 ft | 306 kts | 351° |
| 2026-05-01 09:09 | 31.90806 | -8.16647 | 16025 ft | 308 kts | 352° |
| 2026-05-01 09:09 | 31.92926 | -8.16961 | 16686 ft | 310 kts | 352° |
| 2026-05-01 09:09 | 31.95091 | -8.17270 | 17322 ft | 314 kts | 352° |
| 2026-05-01 09:09 | 31.97275 | -8.17565 | 17871 ft | 320 kts | 352° |
| 2026-05-01 09:10 | 31.99529 | -8.17879 | 17986 ft | 338 kts | 352° |
| 2026-05-01 09:10 | 32.01953 | -8.18226 | 18005 ft | 357 kts | 352° |
| 2026-05-01 09:10 | 32.04472 | -8.18587 | 18001 ft | 375 kts | 352° |
| 2026-05-01 09:10 | 32.07086 | -8.18958 | 17997 ft | 385 kts | 352° |
| 2026-05-01 09:11 | 32.09774 | -8.19307 | 17995 ft | 386 kts | 354° |
| 2026-05-01 09:11 | 32.12466 | -8.19467 | 17996 ft | 384 kts | 359° |
| 2026-05-01 09:11 | 32.15120 | -8.19324 | 18000 ft | 384 kts | 4° |
| 2026-05-01 09:11 | 32.17782 | -8.18967 | 18001 ft | 385 kts | 7° |
| 2026-05-01 09:12 | 32.20445 | -8.18521 | 18001 ft | 385 kts | 8° |
| 2026-05-01 09:12 | 32.23110 | -8.18055 | 18000 ft | 385 kts | 8° |
| 2026-05-01 09:12 | 32.25751 | -8.17597 | 18000 ft | 385 kts | 7° |
| 2026-05-01 09:12 | 32.28393 | -8.17149 | 18000 ft | 385 kts | 7° |
| 2026-05-01 09:13 | 32.31064 | -8.16705 | 18000 ft | 385 kts | 7° |
| 2026-05-01 09:13 | 32.33721 | -8.16268 | 18000 ft | 385 kts | 7° |
| 2026-05-01 09:13 | 32.36356 | -8.15838 | 18000 ft | 385 kts | 7° |
| 2026-05-01 09:13 | 32.39003 | -8.15407 | 18000 ft | 385 kts | 7° |
| 2026-05-01 09:14 | 32.41680 | -8.14971 | 18000 ft | 385 kts | 7° |
| 2026-05-01 09:14 | 32.44344 | -8.14538 | 18000 ft | 385 kts | 7° |
| 2026-05-01 09:14 | 32.46958 | -8.14112 | 17997 ft | 381 kts | 7° |
| 2026-05-01 09:14 | 32.49574 | -8.13686 | 17999 ft | 376 kts | 7° |
| 2026-05-01 09:15 | 32.52167 | -8.13263 | 18002 ft | 376 kts | 7° |
| 2026-05-01 09:15 | 32.54769 | -8.12838 | 18002 ft | 377 kts | 7° |
| 2026-05-01 09:15 | 32.57376 | -8.12412 | 18001 ft | 378 kts | 7° |
| 2026-05-01 09:15 | 32.59967 | -8.11989 | 18000 ft | 377 kts | 7° |
| 2026-05-01 09:16 | 32.62538 | -8.11569 | 17905 ft | 374 kts | 7° |
| 2026-05-01 09:16 | 32.65122 | -8.11147 | 17879 ft | 372 kts | 7° |
| 2026-05-01 09:16 | 32.67709 | -8.10724 | 17895 ft | 374 kts | 7° |
| 2026-05-01 09:17 | 32.72790 | -8.09891 | 17899 ft | 361 kts | 7° |
| 2026-05-01 09:17 | 32.75254 | -8.09486 | 17887 ft | 361 kts | 7° |
| 2026-05-01 09:17 | 32.80279 | -8.08661 | 17035 ft | 355 kts | 7° |
| 2026-05-01 09:18 | 32.82706 | -8.08262 | 16221 ft | 355 kts | 7° |
| 2026-05-01 09:18 | 32.87540 | -8.07466 | 15018 ft | 350 kts | 7° |
| 2026-05-01 09:19 | 32.92165 | -8.05846 | 14037 ft | 346 kts | 32° |
| 2026-05-01 09:19 | 32.93943 | -8.03967 | 13489 ft | 343 kts | 52° |
| 2026-05-01 09:19 | 32.95094 | -8.01553 | 12832 ft | 338 kts | 68° |
| 2026-05-01 09:20 | 32.96731 | -7.96390 | 11691 ft | 324 kts | 70° |
| 2026-05-01 09:20 | 32.98267 | -7.91594 | 11105 ft | 297 kts | 69° |
| 2026-05-01 09:21 | 32.99704 | -7.87185 | 10347 ft | 283 kts | 69° |
| 2026-05-01 09:21 | 33.00411 | -7.85017 | 9857 ft | 281 kts | 69° |
| 2026-05-01 09:21 | 33.01815 | -7.80716 | 8855 ft | 277 kts | 69° |
| 2026-05-01 09:22 | 33.03183 | -7.76519 | 8279 ft | 263 kts | 69° |
| 2026-05-01 09:22 | 33.04574 | -7.72539 | 8360 ft | 250 kts | 61° |
| 2026-05-01 09:23 | 33.05516 | -7.70847 | 8028 ft | 240 kts | 52° |
| 2026-05-01 09:23 | 33.07451 | -7.67937 | 7606 ft | 211 kts | 52° |
| 2026-05-01 09:24 | 33.09123 | -7.65314 | 7204 ft | 187 kts | 53° |
| 2026-05-01 09:24 | 33.09889 | -7.64098 | 6989 ft | 178 kts | 53° |
| 2026-05-01 09:24 | 33.11348 | -7.61779 | 6401 ft | 173 kts | 53° |
| 2026-05-01 09:25 | 33.12758 | -7.59565 | 5789 ft | 154 kts | 53° |
| 2026-05-01 09:25 | 33.14029 | -7.57550 | 5186 ft | 149 kts | 54° |
| 2026-05-01 09:26 | 33.14647 | -7.56568 | 4958 ft | 149 kts | 54° |
| 2026-05-01 09:26 | 33.15886 | -7.54595 | 4482 ft | 148 kts | 54° |
| 2026-05-01 09:26 | 33.16499 | -7.53620 | 4253 ft | 146 kts | 54° |
| 2026-05-01 09:27 | 33.17550 | -7.51593 | 3892 ft | 148 kts | 62° |
| 2026-05-01 09:27 | 33.18371 | -7.50920 | 3615 ft | 152 kts | 1° |
| 2026-05-01 09:27 | 33.19320 | -7.51311 | 3416 ft | 144 kts | 319° |
| 2026-05-01 09:28 | 33.20174 | -7.51976 | 3180 ft | 148 kts | 330° |
| 2026-05-01 09:28 | 33.21062 | -7.52601 | 2989 ft | 149 kts | 330° |
| 2026-05-01 09:28 | 33.21994 | -7.53168 | 2768 ft | 152 kts | 333° |
| 2026-05-01 09:28 | 33.22954 | -7.53725 | 2554 ft | 154 kts | 334° |
| 2026-05-01 09:29 | 33.24966 | -7.54654 | 2215 ft | 154 kts | 342° |
| 2026-05-01 09:29 | 33.26000 | -7.55019 | 2043 ft | 153 kts | 342° |
| 2026-05-01 09:30 | 33.27992 | -7.55838 | 1737 ft | 154 kts | 341° |
| 2026-05-01 09:30 | 33.29026 | -7.56234 | 1726 ft | 151 kts | 344° |
| 2026-05-01 09:30 | 33.31066 | -7.56789 | 1446 ft | 151 kts | 344° |
| 2026-05-01 09:31 | 33.32075 | -7.57160 | 1281 ft | 149 kts | 340° |
| 2026-05-01 09:31 | 33.33058 | -7.57540 | 1106 ft | 149 kts | 343° |
| 2026-05-01 09:31 | 33.35036 | -7.58189 | 717 ft | 144 kts | 343° |
| 2026-05-01 09:32 | 33.35980 | -7.58513 | 657 ft | 137 kts | 342° |
| 2026-05-01 09:32 | 33.37369 | -7.58995 | 649 ft | 70 kts | 344° |
| 2026-05-01 09:32 | 33.37689 | -7.59103 | 647 ft | 29 kts | 342° |
| 2026-05-01 09:33 | 33.37814 | -7.59097 | 646 ft | 16 kts | 67° |
| 2026-05-01 09:33 | 33.37846 | -7.58980 | 646 ft | 14 kts | 73° |
| 2026-05-01 09:33 | 33.37898 | -7.58774 | 646 ft | 11 kts | 72° |
| 2026-05-01 09:34 | 33.37917 | -7.58685 | 646 ft | 10 kts | 96° |
| 2026-05-01 09:34 | 33.37888 | -7.58616 | 646 ft | 8 kts | 130° |
| 2026-05-01 09:34 | 33.37756 | -7.58474 | 646 ft | 15 kts | 161° |
| 2026-05-01 09:35 | 33.37658 | -7.58443 | 647 ft | 13 kts | 171° |
| 2026-05-01 09:35 | 33.37523 | -7.58406 | 648 ft | 2 kts | 107° |
| 2026-05-01 09:35 | 33.37532 | -7.58372 | 648 ft | 4 kts | 68° |
| 2026-05-01 09:36 | 33.37532 | -7.58345 | 649 ft | 2 kts | 93° |
| 2026-05-01 09:36 | 33.37534 | -7.58331 | 649 ft | 1 kts | 76° |
| 2026-05-01 09:36 | 33.37541 | -7.58310 | 650 ft | 1 kts | 44° |
| 2026-05-01 09:36 | 33.37544 | -7.58305 | 650 ft | 0 kts | 58° |